Flugplatz Dortmund

Bericht für EDLW

vom 27.05. um 10:50 UTC

Wind 7 kt aus 140°

Sichtweite 10 km oder mehr

gute Sicht, keine Wolken < 5000 ft, keine CB, keine Wettererscheinungen (CAVOK)

Temperatur 27.0°C

Taupunkt 10.0°C

Luftfeuchtigkeit 34%

Luftdruck 1019 hPa

EDLW 271050Z 14007KT 060V200 CAVOK 27/10 Q1019

Prognose für EDLW

vom 27.05. um 05:00 UTC

Zwischen 06:00 UTC und 07:00 UTC

Wind 4 kt aus 130°

Sichtweite 10 km oder mehr

keine signifikanten Wettererscheinungen

keine Wolken


Zwischen 07:00 und 10:00 UTC übergehend zu

Wind 9 kt aus 160°

Sichtweite 10 km oder mehr

keine signifikanten Wettererscheinungen

keine Wolken


Zwischen 23:00 und 02:00 UTC übergehend zu

Wind 4 kt aus 170°

Sichtweite 10 km oder mehr

keine signifikanten Wettererscheinungen

keine Wolken

TAF EDLW 270500Z 2706/2806 13004KT CAVOK BECMG 2707/2710 16009KT BECMG 2723/2802 17004KT
Impressum